Terminal Aerodrome Forecast
Issued by NWS Buffalo, NY

Home | Current Version | Previous Version | Text Only | Print | Product List | Glossary On
Versions: 1 2 3 4 5 6 7 8 9 10 11 12 13 14 15 16 17 18 19 20 21 22 23 24 25 26 27 28 29
736
FTUS41 KBUF 251743 CCA
TAFART
TAF COR
KART 251743Z 2518/2618 21009KT P6SM -SHRA SCT045 OVC100
     FM252000 21011G21KT P6SM SCT045 BKN110
     FM252200 21010G17KT P6SM SCT040 BKN200
     FM252300 22009KT P6SM FEW025 SCT250
     FM261700 25013KT P6SM FEW035 FEW250=

USA.gov is the U.S. government's official web portal to all federal, state and local government web resources and services.